sensor_id;sensor_type;location;lat;lon;timestamp;temperature;humidity
52439;DHT22;73188;52.948;6.012;2023-12-20T00:03:39;15.40;99.90
52439;DHT22;73188;52.948;6.012;2023-12-20T00:14:04;15.30;99.90
52439;DHT22;73188;52.948;6.012;2023-12-20T00:24:30;15.20;99.90
52439;DHT22;73188;52.948;6.012;2023-12-20T00:34:56;15.20;99.90
52439;DHT22;73188;52.948;6.012;2023-12-20T00:45:22;15.20;99.90
52439;DHT22;73188;52.948;6.012;2023-12-20T00:55:48;15.10;99.90
52439;DHT22;73188;52.948;6.012;2023-12-20T01:06:14;15.20;99.90
52439;DHT22;73188;52.948;6.012;2023-12-20T01:16:41;15.10;99.90
52439;DHT22;73188;52.948;6.012;2023-12-20T01:27:06;15.10;99.90
52439;DHT22;73188;52.948;6.012;2023-12-20T01:37:32;15.20;99.90
52439;DHT22;73188;52.948;6.012;2023-12-20T01:47:59;15.20;99.90
52439;DHT22;73188;52.948;6.012;2023-12-20T01:58:26;15.40;99.90
52439;DHT22;73188;52.948;6.012;2023-12-20T02:08:52;15.20;99.90
52439;DHT22;73188;52.948;6.012;2023-12-20T02:19:18;15.30;99.90
52439;DHT22;73188;52.948;6.012;2023-12-20T02:29:47;15.50;99.90
52439;DHT22;73188;52.948;6.012;2023-12-20T02:40:13;15.50;99.90
52439;DHT22;73188;52.948;6.012;2023-12-20T02:50:40;15.50;99.90
52439;DHT22;73188;52.948;6.012;2023-12-20T03:01:06;15.40;99.90
52439;DHT22;73188;52.948;6.012;2023-12-20T03:11:32;15.20;99.90
52439;DHT22;73188;52.948;6.012;2023-12-20T03:21:58;14.90;99.90
52439;DHT22;73188;52.948;6.012;2023-12-20T03:32:26;14.60;99.90
52439;DHT22;73188;52.948;6.012;2023-12-20T03:42:52;14.60;99.90
52439;DHT22;73188;52.948;6.012;2023-12-20T03:53:17;14.50;99.90
52439;DHT22;73188;52.948;6.012;2023-12-20T04:03:43;14.40;99.90
52439;DHT22;73188;52.948;6.012;2023-12-20T04:14:09;14.30;99.90
52439;DHT22;73188;52.948;6.012;2023-12-20T04:24:35;14.20;99.90
52439;DHT22;73188;52.948;6.012;2023-12-20T04:35:01;13.90;99.90
52439;DHT22;73188;52.948;6.012;2023-12-20T04:45:27;13.80;99.90
52439;DHT22;73188;52.948;6.012;2023-12-20T04:55:53;13.60;99.90
52439;DHT22;73188;52.948;6.012;2023-12-20T05:06:19;13.40;99.90
52439;DHT22;73188;52.948;6.012;2023-12-20T05:16:44;13.10;99.90
52439;DHT22;73188;52.948;6.012;2023-12-20T05:27:10;12.80;99.90
52439;DHT22;73188;52.948;6.012;2023-12-20T05:37:36;12.60;99.90
52439;DHT22;73188;52.948;6.012;2023-12-20T05:48:03;12.50;99.90
52439;DHT22;73188;52.948;6.012;2023-12-20T05:58:29;12.40;99.90
52439;DHT22;73188;52.948;6.012;2023-12-20T06:08:55;12.50;99.90
52439;DHT22;73188;52.948;6.012;2023-12-20T06:19:20;12.30;99.90
52439;DHT22;73188;52.948;6.012;2023-12-20T06:29:46;12.30;99.90
52439;DHT22;73188;52.948;6.012;2023-12-20T06:40:12;12.20;99.90
52439;DHT22;73188;52.948;6.012;2023-12-20T06:50:38;12.30;99.90
52439;DHT22;73188;52.948;6.012;2023-12-20T07:01:05;12.20;99.90
52439;DHT22;73188;52.948;6.012;2023-12-20T07:11:36;12.10;99.90
52439;DHT22;73188;52.948;6.012;2023-12-20T07:22:03;12.10;99.90
52439;DHT22;73188;52.948;6.012;2023-12-20T07:32:29;12.10;99.90
52439;DHT22;73188;52.948;6.012;2023-12-20T07:42:55;12.10;99.90
52439;DHT22;73188;52.948;6.012;2023-12-20T07:53:21;12.20;99.90
52439;DHT22;73188;52.948;6.012;2023-12-20T08:03:48;12.20;99.90
52439;DHT22;73188;52.948;6.012;2023-12-20T08:14:15;12.10;99.90
52439;DHT22;73188;52.948;6.012;2023-12-20T08:24:41;12.20;99.90
52439;DHT22;73188;52.948;6.012;2023-12-20T08:35:07;12.10;99.90
52439;DHT22;73188;52.948;6.012;2023-12-20T08:45:34;12.10;99.90
52439;DHT22;73188;52.948;6.012;2023-12-20T08:56:00;12.00;99.90
52439;DHT22;73188;52.948;6.012;2023-12-20T09:06:27;12.10;99.90
52439;DHT22;73188;52.948;6.012;2023-12-20T09:16:52;12.30;99.90
52439;DHT22;73188;52.948;6.012;2023-12-20T09:27:21;12.90;99.90
52439;DHT22;73188;52.948;6.012;2023-12-20T09:37:47;12.60;99.90
52439;DHT22;73188;52.948;6.012;2023-12-20T09:48:13;12.00;99.90
52439;DHT22;73188;52.948;6.012;2023-12-20T09:58:41;11.50;99.90
52439;DHT22;73188;52.948;6.012;2023-12-20T10:09:08;11.50;99.90
52439;DHT22;73188;52.948;6.012;2023-12-20T10:19:36;11.40;99.90
52439;DHT22;73188;52.948;6.012;2023-12-20T10:30:02;11.40;99.90
52439;DHT22;73188;52.948;6.012;2023-12-20T10:40:29;11.60;99.90
52439;DHT22;73188;52.948;6.012;2023-12-20T10:51:03;11.60;99.90
52439;DHT22;73188;52.948;6.012;2023-12-20T11:01:30;11.50;99.90
52439;DHT22;73188;52.948;6.012;2023-12-20T11:12:10;11.60;99.90
52439;DHT22;73188;52.948;6.012;2023-12-20T11:22:40;11.60;99.90
52439;DHT22;73188;52.948;6.012;2023-12-20T11:33:26;11.70;99.90
52439;DHT22;73188;52.948;6.012;2023-12-20T11:43:53;11.80;99.90
52439;DHT22;73188;52.948;6.012;2023-12-20T11:54:20;12.00;99.90
52439;DHT22;73188;52.948;6.012;2023-12-20T12:04:48;11.90;99.90
52439;DHT22;73188;52.948;6.012;2023-12-20T12:15:16;12.00;99.90
52439;DHT22;73188;52.948;6.012;2023-12-20T12:25:42;11.80;99.90
52439;DHT22;73188;52.948;6.012;2023-12-20T12:36:07;11.70;99.90
52439;DHT22;73188;52.948;6.012;2023-12-20T12:46:33;11.70;99.90
52439;DHT22;73188;52.948;6.012;2023-12-20T12:56:59;11.60;99.90
52439;DHT22;73188;52.948;6.012;2023-12-20T13:07:25;11.60;99.90
52439;DHT22;73188;52.948;6.012;2023-12-20T13:17:51;11.60;99.90
52439;DHT22;73188;52.948;6.012;2023-12-20T13:28:17;11.60;99.90
52439;DHT22;73188;52.948;6.012;2023-12-20T13:38:43;11.80;99.90
52439;DHT22;73188;52.948;6.012;2023-12-20T13:49:09;11.90;99.90
52439;DHT22;73188;52.948;6.012;2023-12-20T13:59:35;11.90;99.90
52439;DHT22;73188;52.948;6.012;2023-12-20T14:10:01;12.10;99.90
52439;DHT22;73188;52.948;6.012;2023-12-20T14:20:26;12.20;99.90
52439;DHT22;73188;52.948;6.012;2023-12-20T14:30:52;12.20;99.90
52439;DHT22;73188;52.948;6.012;2023-12-20T14:41:18;12.20;99.90
52439;DHT22;73188;52.948;6.012;2023-12-20T14:51:44;12.40;99.90
52439;DHT22;73188;52.948;6.012;2023-12-20T15:02:13;12.60;99.90
52439;DHT22;73188;52.948;6.012;2023-12-20T15:12:38;12.80;99.90
52439;DHT22;73188;52.948;6.012;2023-12-20T15:23:04;12.90;99.90
52439;DHT22;73188;52.948;6.012;2023-12-20T15:33:32;13.10;99.90
52439;DHT22;73188;52.948;6.012;2023-12-20T15:43:58;13.00;99.90
52439;DHT22;73188;52.948;6.012;2023-12-20T15:54:24;13.00;99.90
52439;DHT22;73188;52.948;6.012;2023-12-20T16:04:50;13.00;99.90
52439;DHT22;73188;52.948;6.012;2023-12-20T16:15:16;13.10;99.90
52439;DHT22;73188;52.948;6.012;2023-12-20T16:25:43;13.30;99.90
52439;DHT22;73188;52.948;6.012;2023-12-20T16:36:09;13.50;99.90
52439;DHT22;73188;52.948;6.012;2023-12-20T16:46:35;13.60;99.90
52439;DHT22;73188;52.948;6.012;2023-12-20T16:57:01;13.70;99.90
52439;DHT22;73188;52.948;6.012;2023-12-20T17:07:27;13.70;99.90
52439;DHT22;73188;52.948;6.012;2023-12-20T17:17:53;13.90;99.90
52439;DHT22;73188;52.948;6.012;2023-12-20T17:28:18;14.20;99.90
52439;DHT22;73188;52.948;6.012;2023-12-20T17:38:44;14.30;99.90
52439;DHT22;73188;52.948;6.012;2023-12-20T17:49:10;14.60;99.90
52439;DHT22;73188;52.948;6.012;2023-12-20T17:59:36;14.80;99.90
52439;DHT22;73188;52.948;6.012;2023-12-20T18:10:04;15.10;99.90
52439;DHT22;73188;52.948;6.012;2023-12-20T18:20:31;15.20;99.90
52439;DHT22;73188;52.948;6.012;2023-12-20T18:30:57;15.50;99.90
52439;DHT22;73188;52.948;6.012;2023-12-20T18:41:23;15.60;99.90
52439;DHT22;73188;52.948;6.012;2023-12-20T18:51:49;15.70;99.90
52439;DHT22;73188;52.948;6.012;2023-12-20T19:02:15;16.00;99.90
52439;DHT22;73188;52.948;6.012;2023-12-20T19:12:40;16.10;99.90
52439;DHT22;73188;52.948;6.012;2023-12-20T19:23:08;16.50;99.90
52439;DHT22;73188;52.948;6.012;2023-12-20T19:33:37;16.80;99.90
52439;DHT22;73188;52.948;6.012;2023-12-20T19:44:04;16.80;99.90
52439;DHT22;73188;52.948;6.012;2023-12-20T19:54:32;17.10;99.90
52439;DHT22;73188;52.948;6.012;2023-12-20T20:04:58;17.40;99.90
52439;DHT22;73188;52.948;6.012;2023-12-20T20:15:24;17.40;99.90
52439;DHT22;73188;52.948;6.012;2023-12-20T20:25:49;17.60;99.90
52439;DHT22;73188;52.948;6.012;2023-12-20T20:36:15;17.60;99.90
52439;DHT22;73188;52.948;6.012;2023-12-20T20:46:42;17.80;99.90
52439;DHT22;73188;52.948;6.012;2023-12-20T20:57:09;17.90;99.90
52439;DHT22;73188;52.948;6.012;2023-12-20T21:07:35;18.00;99.90
52439;DHT22;73188;52.948;6.012;2023-12-20T21:18:01;18.00;99.90
52439;DHT22;73188;52.948;6.012;2023-12-20T21:28:27;18.20;99.90
52439;DHT22;73188;52.948;6.012;2023-12-20T21:38:53;18.20;99.90
52439;DHT22;73188;52.948;6.012;2023-12-20T21:49:19;18.30;99.90
52439;DHT22;73188;52.948;6.012;2023-12-20T21:59:45;18.30;99.90
52439;DHT22;73188;52.948;6.012;2023-12-20T22:10:11;18.40;99.90
52439;DHT22;73188;52.948;6.012;2023-12-20T22:20:37;18.30;99.90
52439;DHT22;73188;52.948;6.012;2023-12-20T22:31:05;18.30;99.90
52439;DHT22;73188;52.948;6.012;2023-12-20T22:41:31;18.40;99.90
52439;DHT22;73188;52.948;6.012;2023-12-20T22:51:57;18.40;99.90
52439;DHT22;73188;52.948;6.012;2023-12-20T23:02:23;18.40;99.90
52439;DHT22;73188;52.948;6.012;2023-12-20T23:12:50;18.50;99.90
52439;DHT22;73188;52.948;6.012;2023-12-20T23:23:16;18.50;99.90
52439;DHT22;73188;52.948;6.012;2023-12-20T23:33:42;18.50;99.90
52439;DHT22;73188;52.948;6.012;2023-12-20T23:44:10;18.60;99.90
52439;DHT22;73188;52.948;6.012;2023-12-20T23:54:36;18.50;99.90
